sensor_id;sensor_type;location;lat;lon;timestamp;pressure;altitude;pressure_sealevel;temperature;humidity
7888;BME280;3989;48.810;9.208;2023-04-20T00:00:53;98777.41;;;1.92;nan
7888;BME280;3989;48.810;9.208;2023-04-20T00:03:21;98815.44;;;1.99;nan
7888;BME280;3989;48.810;9.208;2023-04-20T00:05:48;98825.09;;;2.10;nan
7888;BME280;3989;48.810;9.208;2023-04-20T00:08:17;98814.34;;;2.02;nan
7888;BME280;3989;48.810;9.208;2023-04-20T00:10:44;98822.13;;;2.03;nan
7888;BME280;3989;48.810;9.208;2023-04-20T00:13:11;98811.34;;;2.06;nan
7888;BME280;3989;48.810;9.208;2023-04-20T00:15:41;98800.72;;;1.97;nan
7888;BME280;3989;48.810;9.208;2023-04-20T00:18:09;98651.53;;;1.13;nan
7888;BME280;3989;48.810;9.208;2023-04-20T00:20:36;98708.06;;;1.50;nan
7888;BME280;3989;48.810;9.208;2023-04-20T00:23:06;98802.56;;;2.17;nan
7888;BME280;3989;48.810;9.208;2023-04-20T00:25:50;98796.16;;;2.10;nan
7888;BME280;3989;48.810;9.208;2023-04-20T00:28:17;98619.03;;;1.03;nan
7888;BME280;3989;48.810;9.208;2023-04-20T00:30:44;98798.25;;;2.16;nan
7888;BME280;3989;48.810;9.208;2023-04-20T00:33:11;98754.16;;;1.97;nan
7888;BME280;3989;48.810;9.208;2023-04-20T00:35:38;98781.50;;;2.17;nan
7888;BME280;3989;48.810;9.208;2023-04-20T00:38:06;98717.50;;;1.85;nan
7888;BME280;3989;48.810;9.208;2023-04-20T00:40:33;98779.34;;;2.22;nan
7888;BME280;3989;48.810;9.208;2023-04-20T00:43:09;98682.50;;;1.73;nan
7888;BME280;3989;48.810;9.208;2023-04-20T00:45:48;98615.09;;;1.40;nan
7888;BME280;3989;48.810;9.208;2023-04-20T00:48:44;98760.38;;;2.49;100.00
7888;BME280;3989;48.810;9.208;2023-04-20T00:51:10;98757.75;;;2.49;100.00
7888;BME280;3989;48.810;9.208;2023-04-20T00:53:38;98770.03;;;2.59;100.00
7888;BME280;3989;48.810;9.208;2023-04-20T00:56:05;98749.63;;;2.52;100.00
7888;BME280;3989;48.810;9.208;2023-04-20T00:58:32;98760.31;;;2.60;100.00
7888;BME280;3989;48.810;9.208;2023-04-20T01:00:59;98740.47;;;2.56;100.00
7888;BME280;3989;48.810;9.208;2023-04-20T01:03:25;98606.50;;;1.59;100.00
7888;BME280;3989;48.810;9.208;2023-04-20T01:05:53;98667.81;;;1.91;100.00
7888;BME280;3989;48.810;9.208;2023-04-20T01:08:24;98741.47;;;2.23;100.00
7888;BME280;3989;48.810;9.208;2023-04-20T01:10:51;98751.50;;;2.08;100.00
7888;BME280;3989;48.810;9.208;2023-04-20T01:13:17;98618.00;;;1.26;100.00
7888;BME280;3989;48.810;9.208;2023-04-20T01:15:44;98669.44;;;1.51;100.00
7888;BME280;3989;48.810;9.208;2023-04-20T01:18:11;98727.31;;;1.83;100.00
7888;BME280;3989;48.810;9.208;2023-04-20T01:20:38;98695.44;;;1.65;100.00
7888;BME280;3989;48.810;9.208;2023-04-20T01:23:05;98632.72;;;1.18;100.00
7888;BME280;3989;48.810;9.208;2023-04-20T01:25:32;98696.25;;;1.45;100.00
7888;BME280;3989;48.810;9.208;2023-04-20T01:27:58;98588.88;;;0.75;100.00
7888;BME280;3989;48.810;9.208;2023-04-20T01:30:26;98648.88;;;1.13;100.00
7888;BME280;3989;48.810;9.208;2023-04-20T01:32:52;98645.66;;;1.10;100.00
7888;BME280;3989;48.810;9.208;2023-04-20T01:35:19;98701.59;;;1.54;100.00
7888;BME280;3989;48.810;9.208;2023-04-20T01:37:45;98698.22;;;1.64;100.00
7888;BME280;3989;48.810;9.208;2023-04-20T01:40:14;98666.56;;;1.54;100.00
7888;BME280;3989;48.810;9.208;2023-04-20T01:42:40;98686.69;;;1.76;100.00
7888;BME280;3989;48.810;9.208;2023-04-20T01:45:08;98674.06;;;1.58;100.00
7888;BME280;3989;48.810;9.208;2023-04-20T01:47:35;98670.78;;;1.45;100.00
7888;BME280;3989;48.810;9.208;2023-04-20T01:50:02;98684.28;;;1.41;100.00
7888;BME280;3989;48.810;9.208;2023-04-20T01:52:29;98682.66;;;1.29;100.00
7888;BME280;3989;48.810;9.208;2023-04-20T01:54:55;98689.59;;;1.19;100.00
7888;BME280;3989;48.810;9.208;2023-04-20T01:57:23;98675.03;;;1.15;100.00
7888;BME280;3989;48.810;9.208;2023-04-20T01:59:49;98676.97;;;1.13;100.00
7888;BME280;3989;48.810;9.208;2023-04-20T02:02:16;98621.56;;;0.93;100.00
7888;BME280;3989;48.810;9.208;2023-04-20T02:04:43;98641.00;;;1.02;100.00
7888;BME280;3989;48.810;9.208;2023-04-20T02:07:09;98526.63;;;0.44;100.00
7888;BME280;3989;48.810;9.208;2023-04-20T02:09:36;98669.50;;;1.29;100.00
7888;BME280;3989;48.810;9.208;2023-04-20T02:12:03;98671.91;;;1.21;100.00
7888;BME280;3989;48.810;9.208;2023-04-20T02:14:31;98669.56;;;1.07;100.00
7888;BME280;3989;48.810;9.208;2023-04-20T02:16:58;98532.63;;;0.13;100.00
7888;BME280;3989;48.810;9.208;2023-04-20T02:19:25;98662.38;;;0.97;100.00
7888;BME280;3989;48.810;9.208;2023-04-20T02:21:51;98651.28;;;0.94;100.00
7888;BME280;3989;48.810;9.208;2023-04-20T02:24:18;98506.63;;;0.10;100.00
7888;BME280;3989;48.810;9.208;2023-04-20T02:26:44;98659.41;;;1.02;100.00
7888;BME280;3989;48.810;9.208;2023-04-20T02:29:11;98633.78;;;0.83;100.00
7888;BME280;3989;48.810;9.208;2023-04-20T02:31:39;98620.38;;;0.75;100.00
7888;BME280;3989;48.810;9.208;2023-04-20T02:34:05;98621.81;;;0.68;100.00
7888;BME280;3989;48.810;9.208;2023-04-20T02:36:33;98644.88;;;0.76;100.00
7888;BME280;3989;48.810;9.208;2023-04-20T02:39:00;98643.53;;;0.81;100.00
7888;BME280;3989;48.810;9.208;2023-04-20T02:41:26;98611.34;;;0.57;100.00
7888;BME280;3989;48.810;9.208;2023-04-20T02:43:53;98647.41;;;0.77;100.00
7888;BME280;3989;48.810;9.208;2023-04-20T02:46:19;98652.88;;;0.74;100.00
7888;BME280;3989;48.810;9.208;2023-04-20T02:48:47;98540.25;;;0.16;100.00
7888;BME280;3989;48.810;9.208;2023-04-20T02:51:14;98576.63;;;0.42;100.00
7888;BME280;3989;48.810;9.208;2023-04-20T02:53:40;98638.19;;;0.83;100.00
7888;BME280;3989;48.810;9.208;2023-04-20T02:56:07;98640.31;;;0.78;100.00
7888;BME280;3989;48.810;9.208;2023-04-20T05:39:17;98596.81;;;2.52;100.00
7888;BME280;3989;48.810;9.208;2023-04-20T05:45:20;98552.72;;;2.44;100.00
7888;BME280;3989;48.810;9.208;2023-04-20T05:51:18;98573.31;;;2.79;100.00
7888;BME280;3989;48.810;9.208;2023-04-20T05:53:53;98476.41;;;2.24;100.00
7888;BME280;3989;48.810;9.208;2023-04-20T05:56:25;98602.81;;;3.13;100.00
7888;BME280;3989;48.810;9.208;2023-04-20T05:58:53;98596.84;;;3.21;100.00
7888;BME280;3989;48.810;9.208;2023-04-20T06:01:30;98596.00;;;3.30;100.00
7888;BME280;3989;48.810;9.208;2023-04-20T06:03:58;98536.75;;;3.05;100.00
7888;BME280;3989;48.810;9.208;2023-04-20T06:06:25;98585.75;;;3.46;100.00
7888;BME280;3989;48.810;9.208;2023-04-20T06:08:52;98558.97;;;3.41;100.00
7888;BME280;3989;48.810;9.208;2023-04-20T06:11:19;98556.59;;;3.47;100.00
7888;BME280;3989;48.810;9.208;2023-04-20T06:13:47;98532.03;;;3.47;100.00
7888;BME280;3989;48.810;9.208;2023-04-20T06:16:14;98405.78;;;2.77;100.00
7888;BME280;3989;48.810;9.208;2023-04-20T06:18:40;98594.19;;;4.07;100.00
7888;BME280;3989;48.810;9.208;2023-04-20T06:21:08;98590.09;;;4.22;100.00
7888;BME280;3989;48.810;9.208;2023-04-20T06:23:35;98524.56;;;3.98;100.00
7888;BME280;3989;48.810;9.208;2023-04-20T06:26:02;98509.16;;;3.94;100.00
7888;BME280;3989;48.810;9.208;2023-04-20T06:28:29;98387.44;;;3.23;100.00
7888;BME280;3989;48.810;9.208;2023-04-20T06:30:57;98435.50;;;3.63;100.00
7888;BME280;3989;48.810;9.208;2023-04-20T06:33:23;98588.00;;;4.62;100.00
7888;BME280;3989;48.810;9.208;2023-04-20T06:35:50;98571.09;;;4.55;100.00
7888;BME280;3989;48.810;9.208;2023-04-20T06:38:18;98440.16;;;3.79;100.00
7888;BME280;3989;48.810;9.208;2023-04-20T06:40:45;98543.06;;;4.62;100.00
7888;BME280;3989;48.810;9.208;2023-04-20T06:43:11;98572.16;;;4.90;100.00
7888;BME280;3989;48.810;9.208;2023-04-20T06:45:38;98531.47;;;4.73;100.00
7888;BME280;3989;48.810;9.208;2023-04-20T06:48:07;98575.63;;;5.08;100.00
7888;BME280;3989;48.810;9.208;2023-04-20T06:50:33;98572.41;;;5.14;100.00
7888;BME280;3989;48.810;9.208;2023-04-20T06:53:01;98569.41;;;5.26;100.00
7888;BME280;3989;48.810;9.208;2023-04-20T06:55:28;98531.06;;;5.13;100.00
7888;BME280;3989;48.810;9.208;2023-04-20T06:57:54;98550.13;;;5.34;100.00
7888;BME280;3989;48.810;9.208;2023-04-20T07:00:21;98477.09;;;5.06;100.00
7888;BME280;3989;48.810;9.208;2023-04-20T07:02:49;98559.91;;;5.77;100.00
7888;BME280;3989;48.810;9.208;2023-04-20T07:05:17;98470.38;;;5.29;100.00
7888;BME280;3989;48.810;9.208;2023-04-20T07:07:44;98559.13;;;6.02;100.00
7888;BME280;3989;48.810;9.208;2023-04-20T07:10:12;98552.75;;;6.13;100.00
7888;BME280;3989;48.810;9.208;2023-04-20T07:12:39;98547.69;;;6.02;100.00
7888;BME280;3989;48.810;9.208;2023-04-20T07:15:07;98556.25;;;6.13;100.00
7888;BME280;3989;48.810;9.208;2023-04-20T07:17:34;98558.47;;;6.26;100.00
7888;BME280;3989;48.810;9.208;2023-04-20T07:20:01;98547.97;;;6.16;100.00
7888;BME280;3989;48.810;9.208;2023-04-20T07:22:33;98518.53;;;5.76;100.00
7888;BME280;3989;48.810;9.208;2023-04-20T07:25:00;98537.53;;;5.71;100.00
7888;BME280;3989;48.810;9.208;2023-04-20T07:27:28;98552.59;;;5.71;100.00
7888;BME280;3989;48.810;9.208;2023-04-20T07:29:55;98485.41;;;5.28;100.00
7888;BME280;3989;48.810;9.208;2023-04-20T07:32:23;98556.91;;;5.90;100.00
7888;BME280;3989;48.810;9.208;2023-04-20T07:34:50;98395.59;;;5.27;100.00
7888;BME280;3989;48.810;9.208;2023-04-20T07:37:16;98554.56;;;6.80;100.00
7888;BME280;3989;48.810;9.208;2023-04-20T07:39:44;98418.22;;;6.32;100.00
7888;BME280;3989;48.810;9.208;2023-04-20T07:42:11;98550.06;;;7.47;100.00
7888;BME280;3989;48.810;9.208;2023-04-20T07:44:37;98494.97;;;7.40;100.00
7888;BME280;3989;48.810;9.208;2023-04-20T07:47:04;98548.41;;;7.94;100.00
7888;BME280;3989;48.810;9.208;2023-04-20T07:49:30;98546.72;;;8.09;100.00
7888;BME280;3989;48.810;9.208;2023-04-20T07:51:57;98505.56;;;7.89;100.00
7888;BME280;3989;48.810;9.208;2023-04-20T07:54:23;98550.91;;;8.04;100.00
7888;BME280;3989;48.810;9.208;2023-04-20T07:56:51;98516.34;;;7.96;100.00
7888;BME280;3989;48.810;9.208;2023-04-20T07:59:19;98547.53;;;8.34;100.00
7888;BME280;3989;48.810;9.208;2023-04-20T08:01:45;98542.88;;;8.36;97.48
7888;BME280;3989;48.810;9.208;2023-04-20T08:04:12;98536.25;;;8.24;97.41
7888;BME280;3989;48.810;9.208;2023-04-20T08:06:38;98500.19;;;8.21;96.99
7888;BME280;3989;48.810;9.208;2023-04-20T08:09:05;98477.75;;;8.24;96.83
7888;BME280;3989;48.810;9.208;2023-04-20T08:11:31;98521.38;;;8.92;95.08
7888;BME280;3989;48.810;9.208;2023-04-20T08:13:59;98468.94;;;8.70;89.85
7888;BME280;3989;48.810;9.208;2023-04-20T08:16:26;98497.72;;;8.98;89.59
7888;BME280;3989;48.810;9.208;2023-04-20T08:18:52;98523.06;;;8.85;86.39
7888;BME280;3989;48.810;9.208;2023-04-20T08:21:19;98536.84;;;8.89;92.61
7888;BME280;3989;48.810;9.208;2023-04-20T08:23:47;98535.84;;;8.90;93.12
7888;BME280;3989;48.810;9.208;2023-04-20T08:26:14;98533.69;;;8.93;95.56
7888;BME280;3989;48.810;9.208;2023-04-20T08:28:41;98539.16;;;8.92;92.90
7888;BME280;3989;48.810;9.208;2023-04-20T08:31:10;98494.84;;;8.37;93.50
7888;BME280;3989;48.810;9.208;2023-04-20T08:33:37;98537.03;;;8.40;97.88
7888;BME280;3989;48.810;9.208;2023-04-20T08:36:04;98497.94;;;7.86;99.92
7888;BME280;3989;48.810;9.208;2023-04-20T08:38:31;98536.59;;;7.88;100.00
7888;BME280;3989;48.810;9.208;2023-04-20T08:40:57;98502.28;;;7.47;100.00
7888;BME280;3989;48.810;9.208;2023-04-20T08:43:24;98543.44;;;7.59;100.00
7888;BME280;3989;48.810;9.208;2023-04-20T08:45:53;98524.53;;;7.46;100.00
7888;BME280;3989;48.810;9.208;2023-04-20T08:48:24;98526.69;;;7.58;100.00
7888;BME280;3989;48.810;9.208;2023-04-20T08:50:51;98402.41;;;6.81;100.00
7888;BME280;3989;48.810;9.208;2023-04-20T08:53:18;98455.97;;;7.09;100.00
7888;BME280;3989;48.810;9.208;2023-04-20T08:55:44;98547.59;;;7.61;100.00
7888;BME280;3989;48.810;9.208;2023-04-20T08:58:13;98540.28;;;7.55;100.00
7888;BME280;3989;48.810;9.208;2023-04-20T09:00:45;98541.63;;;7.51;100.00
7888;BME280;3989;48.810;9.208;2023-04-20T09:03:11;98513.38;;;7.34;100.00
7888;BME280;3989;48.810;9.208;2023-04-20T09:05:39;98474.88;;;7.06;100.00
7888;BME280;3989;48.810;9.208;2023-04-20T09:08:07;98534.13;;;7.47;100.00
7888;BME280;3989;48.810;9.208;2023-04-20T09:10:39;98516.22;;;7.40;100.00
7888;BME280;3989;48.810;9.208;2023-04-20T09:13:06;98431.94;;;6.94;100.00
7888;BME280;3989;48.810;9.208;2023-04-20T09:15:33;98510.59;;;7.52;100.00
7888;BME280;3989;48.810;9.208;2023-04-20T09:18:10;98495.66;;;7.43;100.00
7888;BME280;3989;48.810;9.208;2023-04-20T09:20:39;98537.66;;;7.71;100.00
7888;BME280;3989;48.810;9.208;2023-04-20T09:23:10;98479.56;;;7.36;100.00
7888;BME280;3989;48.810;9.208;2023-04-20T09:25:37;98531.31;;;7.64;100.00
7888;BME280;3989;48.810;9.208;2023-04-20T09:28:05;98529.00;;;7.61;100.00
7888;BME280;3989;48.810;9.208;2023-04-20T09:30:37;98483.53;;;7.48;100.00
7888;BME280;3989;48.810;9.208;2023-04-20T09:33:04;98469.28;;;7.49;100.00
7888;BME280;3989;48.810;9.208;2023-04-20T09:35:32;98429.44;;;7.41;100.00
7888;BME280;3989;48.810;9.208;2023-04-20T09:38:00;98471.69;;;7.83;100.00
7888;BME280;3989;48.810;9.208;2023-04-20T09:40:27;98506.00;;;8.25;100.00
7888;BME280;3989;48.810;9.208;2023-04-20T09:42:57;98473.56;;;8.37;100.00
7888;BME280;3989;48.810;9.208;2023-04-20T09:45:24;98508.59;;;8.88;100.00
7888;BME280;3989;48.810;9.208;2023-04-20T09:47:52;98506.63;;;8.82;99.28
7888;BME280;3989;48.810;9.208;2023-04-20T09:50:20;98512.59;;;8.84;100.00
7888;BME280;3989;48.810;9.208;2023-04-20T09:52:47;98507.28;;;8.84;100.00
7888;BME280;3989;48.810;9.208;2023-04-20T09:55:16;98491.00;;;8.79;100.00
7888;BME280;3989;48.810;9.208;2023-04-20T09:57:43;98509.09;;;8.91;100.00
7888;BME280;3989;48.810;9.208;2023-04-20T10:00:11;98422.75;;;8.32;100.00
7888;BME280;3989;48.810;9.208;2023-04-20T10:02:38;98419.44;;;8.22;100.00
7888;BME280;3989;48.810;9.208;2023-04-20T10:05:06;98448.50;;;8.32;100.00
7888;BME280;3989;48.810;9.208;2023-04-20T10:07:32;98452.84;;;8.33;100.00
7888;BME280;3989;48.810;9.208;2023-04-20T10:10:07;98501.06;;;8.61;100.00
7888;BME280;3989;48.810;9.208;2023-04-20T10:12:47;98509.53;;;8.64;100.00
7888;BME280;3989;48.810;9.208;2023-04-20T10:15:13;98510.50;;;8.71;100.00
7888;BME280;3989;48.810;9.208;2023-04-20T10:17:40;98501.44;;;8.88;100.00
7888;BME280;3989;48.810;9.208;2023-04-20T10:20:17;98418.00;;;8.51;100.00
7888;BME280;3989;48.810;9.208;2023-04-20T10:22:44;98438.84;;;8.70;100.00
7888;BME280;3989;48.810;9.208;2023-04-20T10:25:16;98457.13;;;8.95;100.00
7888;BME280;3989;48.810;9.208;2023-04-20T10:27:53;98432.06;;;8.90;100.00
7888;BME280;3989;48.810;9.208;2023-04-20T10:30:21;98429.47;;;8.82;100.00
7888;BME280;3989;48.810;9.208;2023-04-20T10:32:48;98487.75;;;9.22;100.00
7888;BME280;3989;48.810;9.208;2023-04-20T10:35:16;98467.28;;;9.23;100.00
7888;BME280;3989;48.810;9.208;2023-04-20T10:37:49;98491.41;;;9.44;100.00
7888;BME280;3989;48.810;9.208;2023-04-20T10:40:22;98484.38;;;9.28;100.00
7888;BME280;3989;48.810;9.208;2023-04-20T10:42:50;98486.44;;;9.18;100.00
7888;BME280;3989;48.810;9.208;2023-04-20T10:45:18;98482.00;;;9.11;100.00
7888;BME280;3989;48.810;9.208;2023-04-20T10:47:45;98340.25;;;8.10;100.00
7888;BME280;3989;48.810;9.208;2023-04-20T10:50:13;98490.38;;;9.00;100.00
7888;BME280;3989;48.810;9.208;2023-04-20T10:52:41;98467.31;;;8.92;100.00
7888;BME280;3989;48.810;9.208;2023-04-20T10:55:17;98422.72;;;8.71;100.00
7888;BME280;3989;48.810;9.208;2023-04-20T10:57:44;98441.47;;;8.78;100.00
7888;BME280;3989;48.810;9.208;2023-04-20T11:00:15;98440.06;;;8.90;100.00
7888;BME280;3989;48.810;9.208;2023-04-20T11:02:49;98397.88;;;8.79;100.00
7888;BME280;3989;48.810;9.208;2023-04-20T11:05:16;98397.59;;;8.96;100.00
7888;BME280;3989;48.810;9.208;2023-04-20T11:07:55;98420.34;;;8.99;100.00
7888;BME280;3989;48.810;9.208;2023-04-20T11:10:24;98378.25;;;8.57;100.00
7888;BME280;3989;48.810;9.208;2023-04-20T11:12:51;98421.25;;;8.69;100.00
7888;BME280;3989;48.810;9.208;2023-04-20T11:15:17;98428.41;;;8.60;100.00
7888;BME280;3989;48.810;9.208;2023-04-20T11:17:44;98317.28;;;7.86;100.00
7888;BME280;3989;48.810;9.208;2023-04-20T11:20:14;98421.00;;;8.48;100.00
7888;BME280;3989;48.810;9.208;2023-04-20T11:22:42;98412.16;;;8.55;100.00
7888;BME280;3989;48.810;9.208;2023-04-20T11:25:10;98412.94;;;8.64;100.00
7888;BME280;3989;48.810;9.208;2023-04-20T11:27:37;98413.69;;;8.80;100.00
7888;BME280;3989;48.810;9.208;2023-04-20T11:30:06;98337.22;;;8.52;100.00
7888;BME280;3989;48.810;9.208;2023-04-20T11:32:34;98331.91;;;8.74;100.00
7888;BME280;3989;48.810;9.208;2023-04-20T11:35:03;98345.47;;;9.02;100.00
7888;BME280;3989;48.810;9.208;2023-04-20T11:37:44;98321.72;;;9.01;100.00
7888;BME280;3989;48.810;9.208;2023-04-20T11:40:11;98381.09;;;9.38;100.00
7888;BME280;3989;48.810;9.208;2023-04-20T11:42:39;98405.81;;;9.47;100.00
7888;BME280;3989;48.810;9.208;2023-04-20T11:45:06;98418.38;;;9.38;100.00
7888;BME280;3989;48.810;9.208;2023-04-20T11:47:33;98427.03;;;9.18;100.00
7888;BME280;3989;48.810;9.208;2023-04-20T11:49:59;98413.44;;;9.13;100.00
7888;BME280;3989;48.810;9.208;2023-04-20T11:52:26;98386.44;;;8.78;100.00
7888;BME280;3989;48.810;9.208;2023-04-20T11:54:54;98417.78;;;8.91;100.00
7888;BME280;3989;48.810;9.208;2023-04-20T11:57:21;98428.09;;;8.86;100.00
7888;BME280;3989;48.810;9.208;2023-04-20T11:59:48;98424.28;;;8.88;100.00
7888;BME280;3989;48.810;9.208;2023-04-20T12:02:14;98423.84;;;8.77;100.00
7888;BME280;3989;48.810;9.208;2023-04-20T12:04:41;98380.25;;;8.55;100.00
7888;BME280;3989;48.810;9.208;2023-04-20T12:07:07;98409.28;;;8.65;100.00
7888;BME280;3989;48.810;9.208;2023-04-20T12:09:34;98340.16;;;8.34;100.00
7888;BME280;3989;48.810;9.208;2023-04-20T12:12:04;98419.94;;;8.87;100.00
7888;BME280;3989;48.810;9.208;2023-04-20T12:14:31;98377.06;;;8.60;100.00
7888;BME280;3989;48.810;9.208;2023-04-20T12:16:59;98387.00;;;8.66;100.00
7888;BME280;3989;48.810;9.208;2023-04-20T12:19:26;98412.00;;;8.79;100.00
7888;BME280;3989;48.810;9.208;2023-04-20T12:21:53;98410.63;;;8.91;100.00
7888;BME280;3989;48.810;9.208;2023-04-20T12:24:19;98406.69;;;9.02;100.00
7888;BME280;3989;48.810;9.208;2023-04-20T12:26:46;98404.63;;;9.12;100.00
7888;BME280;3989;48.810;9.208;2023-04-20T12:29:14;98354.41;;;8.86;100.00
7888;BME280;3989;48.810;9.208;2023-04-20T12:31:41;98385.34;;;9.10;100.00
7888;BME280;3989;48.810;9.208;2023-04-20T12:34:07;98347.28;;;8.87;100.00
7888;BME280;3989;48.810;9.208;2023-04-20T12:36:34;98409.06;;;9.20;100.00
7888;BME280;3989;48.810;9.208;2023-04-20T12:39:01;98278.19;;;8.33;100.00
7888;BME280;3989;48.810;9.208;2023-04-20T12:41:28;98349.81;;;8.80;100.00
7888;BME280;3989;48.810;9.208;2023-04-20T12:43:55;98167.75;;;7.77;100.00
7888;BME280;3989;48.810;9.208;2023-04-20T12:46:23;98396.13;;;9.17;100.00
7888;BME280;3989;48.810;9.208;2023-04-20T12:48:50;98378.25;;;9.03;100.00
7888;BME280;3989;48.810;9.208;2023-04-20T12:51:16;98393.72;;;9.22;100.00
7888;BME280;3989;48.810;9.208;2023-04-20T12:53:43;98399.63;;;9.32;100.00
7888;BME280;3989;48.810;9.208;2023-04-20T12:56:09;98370.69;;;9.29;100.00
7888;BME280;3989;48.810;9.208;2023-04-20T12:58:36;98381.56;;;9.42;100.00
7888;BME280;3989;48.810;9.208;2023-04-20T13:01:03;98375.50;;;9.48;100.00
7888;BME280;3989;48.810;9.208;2023-04-20T13:03:31;98370.00;;;9.64;100.00
7888;BME280;3989;48.810;9.208;2023-04-20T13:05:58;98339.41;;;9.60;100.00
7888;BME280;3989;48.810;9.208;2023-04-20T13:08:24;98256.75;;;9.24;100.00
7888;BME280;3989;48.810;9.208;2023-04-20T13:10:51;98317.00;;;9.55;100.00
7888;BME280;3989;48.810;9.208;2023-04-20T13:13:17;98376.72;;;9.89;100.00
7888;BME280;3989;48.810;9.208;2023-04-20T13:15:44;98317.38;;;9.37;100.00
7888;BME280;3989;48.810;9.208;2023-04-20T13:18:11;98341.03;;;9.17;100.00
7888;BME280;3989;48.810;9.208;2023-04-20T13:20:40;98349.28;;;9.08;100.00
7888;BME280;3989;48.810;9.208;2023-04-20T13:23:07;98389.81;;;9.32;100.00
7888;BME280;3989;48.810;9.208;2023-04-20T13:25:33;98349.84;;;8.95;100.00
7888;BME280;3989;48.810;9.208;2023-04-20T13:28:02;98345.66;;;9.01;100.00
7888;BME280;3989;48.810;9.208;2023-04-20T13:30:29;98389.03;;;9.46;100.00
7888;BME280;3989;48.810;9.208;2023-04-20T13:32:56;98374.88;;;9.46;100.00
7888;BME280;3989;48.810;9.208;2023-04-20T13:35:23;98374.16;;;9.52;100.00
7888;BME280;3989;48.810;9.208;2023-04-20T13:37:51;98379.22;;;9.62;100.00
7888;BME280;3989;48.810;9.208;2023-04-20T13:40:17;98379.38;;;9.60;100.00
7888;BME280;3989;48.810;9.208;2023-04-20T13:42:44;98366.44;;;9.72;100.00
7888;BME280;3989;48.810;9.208;2023-04-20T13:45:11;98367.53;;;9.77;100.00
7888;BME280;3989;48.810;9.208;2023-04-20T13:47:38;98320.69;;;9.54;100.00
7888;BME280;3989;48.810;9.208;2023-04-20T13:50:06;98384.72;;;9.89;100.00
7888;BME280;3989;48.810;9.208;2023-04-20T13:52:33;98271.53;;;9.12;100.00
7888;BME280;3989;48.810;9.208;2023-04-20T13:55:01;98358.44;;;9.57;100.00
7888;BME280;3989;48.810;9.208;2023-04-20T13:57:27;98301.38;;;9.08;100.00
7888;BME280;3989;48.810;9.208;2023-04-20T13:59:55;98304.19;;;9.06;100.00
7888;BME280;3989;48.810;9.208;2023-04-20T14:02:22;98340.59;;;9.28;100.00
7888;BME280;3989;48.810;9.208;2023-04-20T14:04:49;98371.28;;;9.54;100.00
7888;BME280;3989;48.810;9.208;2023-04-20T14:07:15;98280.81;;;9.16;100.00
7888;BME280;3989;48.810;9.208;2023-04-20T14:09:42;98340.91;;;9.63;100.00
7888;BME280;3989;48.810;9.208;2023-04-20T14:12:11;98358.25;;;9.59;100.00
7888;BME280;3989;48.810;9.208;2023-04-20T14:14:38;98352.00;;;9.52;100.00
7888;BME280;3989;48.810;9.208;2023-04-20T14:17:05;98352.75;;;9.45;100.00
7888;BME280;3989;48.810;9.208;2023-04-20T14:19:31;98299.41;;;9.02;100.00
7888;BME280;3989;48.810;9.208;2023-04-20T14:21:58;98357.19;;;9.16;100.00
7888;BME280;3989;48.810;9.208;2023-04-20T14:24:25;98318.16;;;8.85;100.00
7888;BME280;3989;48.810;9.208;2023-04-20T14:26:51;98359.56;;;9.11;100.00
7888;BME280;3989;48.810;9.208;2023-04-20T14:29:19;98379.81;;;9.12;100.00
7888;BME280;3989;48.810;9.208;2023-04-20T14:31:46;98381.03;;;9.09;100.00
7888;BME280;3989;48.810;9.208;2023-04-20T14:34:12;98248.97;;;8.25;100.00
7888;BME280;3989;48.810;9.208;2023-04-20T14:36:39;98313.66;;;8.49;100.00
7888;BME280;3989;48.810;9.208;2023-04-20T14:39:05;98382.38;;;8.82;100.00
7888;BME280;3989;48.810;9.208;2023-04-20T14:41:32;98230.94;;;7.90;100.00
7888;BME280;3989;48.810;9.208;2023-04-20T14:43:59;98348.59;;;8.68;100.00
7888;BME280;3989;48.810;9.208;2023-04-20T14:46:27;98365.91;;;8.87;100.00
7888;BME280;3989;48.810;9.208;2023-04-20T14:48:53;98338.34;;;8.57;100.00
7888;BME280;3989;48.810;9.208;2023-04-20T14:51:20;98379.25;;;8.79;100.00
7888;BME280;3989;48.810;9.208;2023-04-20T14:53:46;98382.97;;;8.70;100.00
7888;BME280;3989;48.810;9.208;2023-04-20T14:56:13;98387.41;;;8.55;100.00
7888;BME280;3989;48.810;9.208;2023-04-20T14:58:39;98261.63;;;7.62;100.00
7888;BME280;3989;48.810;9.208;2023-04-20T15:01:06;98386.06;;;8.20;100.00
7888;BME280;3989;48.810;9.208;2023-04-20T15:03:34;98399.72;;;8.09;100.00
7888;BME280;3989;48.810;9.208;2023-04-20T15:06:01;98394.09;;;8.04;100.00
7888;BME280;3989;48.810;9.208;2023-04-20T15:08:28;98376.25;;;7.81;100.00
7888;BME280;3989;48.810;9.208;2023-04-20T15:10:55;98402.28;;;7.86;100.00
7888;BME280;3989;48.810;9.208;2023-04-20T15:13:21;98399.81;;;7.76;100.00
7888;BME280;3989;48.810;9.208;2023-04-20T15:15:48;98393.19;;;7.80;100.00
7888;BME280;3989;48.810;9.208;2023-04-20T15:18:15;98371.97;;;7.64;100.00
7888;BME280;3989;48.810;9.208;2023-04-20T15:20:43;98266.25;;;7.05;100.00
7888;BME280;3989;48.810;9.208;2023-04-20T15:23:10;98343.66;;;7.49;100.00
7888;BME280;3989;48.810;9.208;2023-04-20T15:25:37;98381.56;;;7.73;100.00
7888;BME280;3989;48.810;9.208;2023-04-20T15:28:04;98394.66;;;7.83;100.00
7888;BME280;3989;48.810;9.208;2023-04-20T15:30:31;98365.34;;;7.68;100.00
7888;BME280;3989;48.810;9.208;2023-04-20T15:32:58;98365.00;;;7.71;100.00
7888;BME280;3989;48.810;9.208;2023-04-20T15:35:24;98394.47;;;7.92;100.00
7888;BME280;3989;48.810;9.208;2023-04-20T15:37:52;98382.22;;;7.83;100.00
7888;BME280;3989;48.810;9.208;2023-04-20T15:40:19;98367.13;;;7.76;100.00
7888;BME280;3989;48.810;9.208;2023-04-20T15:42:46;98382.53;;;7.88;100.00
7888;BME280;3989;48.810;9.208;2023-04-20T15:45:13;98389.00;;;7.94;100.00
7888;BME280;3989;48.810;9.208;2023-04-20T15:47:40;98394.47;;;7.92;100.00
7888;BME280;3989;48.810;9.208;2023-04-20T15:50:07;98400.66;;;7.85;100.00
7888;BME280;3989;48.810;9.208;2023-04-20T15:52:34;98391.38;;;7.81;100.00
7888;BME280;3989;48.810;9.208;2023-04-20T15:55:02;98303.03;;;7.32;100.00
7888;BME280;3989;48.810;9.208;2023-04-20T15:57:29;98381.72;;;7.80;100.00
7888;BME280;3989;48.810;9.208;2023-04-20T15:59:56;98368.47;;;7.72;100.00
7888;BME280;3989;48.810;9.208;2023-04-20T16:02:23;98278.38;;;7.07;100.00
7888;BME280;3989;48.810;9.208;2023-04-20T16:04:50;98372.28;;;7.69;100.00
7888;BME280;3989;48.810;9.208;2023-04-20T16:07:16;98279.53;;;7.13;100.00
7888;BME280;3989;48.810;9.208;2023-04-20T16:09:43;98298.41;;;7.26;100.00
7888;BME280;3989;48.810;9.208;2023-04-20T16:12:11;98368.50;;;7.64;100.00
7888;BME280;3989;48.810;9.208;2023-04-20T16:14:38;98388.38;;;7.76;100.00